NASDAQ100

USA: Nasdaq 100

Name ISIN Kurs Stand Diff % Diff +/-
Adobe Inc. US00724F1012 246,15 17:25 Uhr +0,96% +2,350
Advanced Micro Devices Inc. US0079031078 391,90 17:25 Uhr -0,75% -2,950
Airbnb Inc. US0090661010 160,02 17:25 Uhr +2,39% +3,740
Alnylam Pharmaceuticals Inc US02043Q1076 228,00 17:25 Uhr +1,33% +3,000
Alphabet Inc. US02079K3059 293,25 18:29 Uhr +0,57% +1,650
Alphabet Inc. US02079K1079 291,90 17:25 Uhr +1,53% +4,400
Amazon.com Inc. US0231351067 222,50 17:25 Uhr +1,14% +2,500
American Electric Power Co.Inc US0255371017 107,10 17:25 Uhr +1,00% +1,060
Amgen Inc. US0311621009 380,80 17:25 Uhr +0,99% +3,750
Analog Devices Inc. US0326541051 304,45 17:25 Uhr -1,22% -3,750
Apple Inc. US0378331005 283,45 17:25 Uhr +0,94% +2,650
Applied Materials Inc. US0382221051 373,95 17:25 Uhr -0,68% -2,550
ARM Holdings PLC US0420682058 204,00 17:25 Uhr +2,62% +5,200
Autodesk Inc. US0527691069 209,40 17:25 Uhr -0,50% -1,050
Automatic Data Processing Inc. US0530151036 243,25 17:25 Uhr +0,60% +1,450
Baker Hughes Co. US05722G1004 55,50 17:25 Uhr -0,43% -0,2400
Booking Holdings Inc. US09857L1089 170,65 17:25 Uhr -0,32% -0,5500
Broadcom Inc. US11135F1012 298,90 17:25 Uhr -6,27% -20,00
Cadence Design Systems Inc. US1273871087 264,40 17:25 Uhr -0,13% -0,3500
Cisco Systems Inc. US17275R1023 94,08 17:25 Uhr +0,11% +0,1000
Coca-Cola Europacific Pa. PLC GB00BDCPN049 93,30 17:25 Uhr +0,54% +0,5000
Comcast Corp. US20030N1019 22,86 17:25 Uhr -2,12% -0,4950
Copart Inc. US2172041061 28,57 17:25 Uhr +2,24% +0,6250
Costco Wholesale Corp. US22160K1051 797,10 17:25 Uhr -1,15% -9,300
Crowdstrike Holdings Inc US22788C1053 182,62 17:25 Uhr +3,64% +6,420
CSX Corp. US1264081035 42,03 17:25 Uhr +0,41% +0,1700
Datadog Inc. US23804L1035 184,80 17:25 Uhr +0,65% +1,200
DexCom Inc. US2521311074 76,80 17:25 Uhr -1,54% -1,200
Diamondback Energy Inc. US25278X1090 175,08 17:25 Uhr -0,11% -0,2000
Exelon Corp. US30161N1019 38,15 17:25 Uhr +1,26% +0,4750
Fastenal Co. US3119001044 41,85 17:25 Uhr +0,78% +0,3250
Ferrovial N.V. NL0015001FS8 49,85 17:25 Uhr +0,30% +0,1500
Fortinet Inc. US34959E1091 135,82 17:25 Uhr +2,12% +2,820
GE Healthcare Technologies Inc US36266G1076 59,29 17:25 Uhr -3,77% -2,320
Gilead Sciences Inc. US3755581036 129,02 17:25 Uhr -0,37% -0,4800
Honeywell International Inc. US4385162056 177,60 17:25 Uhr -1,07% -1,920
IDEXX Laboratories Inc. US45168D1046 457,80 17:25 Uhr -3,50% -16,60
Intel Corp. US4581401001 77,54 17:25 Uhr +0,41% +0,3200
Intuit Inc. US4612021034 300,20 17:25 Uhr +1,49% +4,400
Intuitive Surgical Inc. US46120E6023 316,95 17:25 Uhr -3,40% -11,15
Keurig Dr Pepper Inc. US49271V1008 28,15 17:25 Uhr -0,49% -0,1400
KLA Corp. US4824801009 147,46 17:25 Uhr +0,27% +0,4000
Kraft Heinz Co., The US5007541064 21,81 17:25 Uhr -3,79% -0,8600
Lam Research Corp. US5128073062 246,25 17:25 Uhr -0,44% -1,100
Linde plc IE000S9YS762 413,60 16:18 Uhr -0,72% -3,000
Marriott International Inc. US5719032022 288,75 17:25 Uhr +0,09% +0,2500
Marvell Technology Inc. US5738741041 180,46 17:25 Uhr +1,91% +3,380
Mercadolibre Inc. US58733R1023 1.741,00 17:25 Uhr +1,17% +20,20
Meta Platforms Inc. US30303M1027 532,10 17:25 Uhr +3,56% +18,30
Microchip Technology Inc. US5950171042 62,19 17:25 Uhr -0,53% -0,3300
Micron Technology Inc. US5951121038 813,40 17:25 Uhr +0,32% +2,600
Microsoft Corp. US5949181045 440,95 17:25 Uhr +2,73% +11,70
Mondelez International Inc. US6092071058 52,68 17:25 Uhr -2,05% -1,100
Monster Beverage Corp. (NEW) US61174X1090 38,21 17:25 Uhr -1,02% -0,3950
Netflix Inc. US64110L1061 70,96 17:25 Uhr -0,56% -0,4000
NVIDIA Corp. US67066G1040 195,28 17:25 Uhr -0,07% -0,1400
NXP Semiconductors NV NL0009538784 194,66 17:25 Uhr -1,31% -2,580
O’Reilly Automotive Inc.[New] US67103H1077 75,06 17:25 Uhr -0,13% -0,1000
Old Dominion Freight Line Inc. US6795801009 158,24 17:25 Uhr -2,56% -4,160
Paccar Inc. US6937181088 105,98 17:25 Uhr +0,32% +0,3400
Palo Alto Networks Inc. US6974351057 283,05 17:25 Uhr -1,00% -2,850
Paychex Inc. US7043261079 106,60 17:25 Uhr -0,26% -0,2800
PayPal Holdings Inc. US70450Y1038 47,71 17:25 Uhr +2,14% +1,0000
PepsiCo Inc. US7134481081 120,06 17:25 Uhr -1,56% -1,900
QUALCOMM Inc. US7475251036 145,32 17:25 Uhr -0,49% -0,7200
Regeneron Pharmaceuticals Inc. US75886F1075 724,50 17:25 Uhr +0,47% +3,400
Roper Technologies Inc. US7766961061 363,20 17:25 Uhr +0,78% +2,800
Ross Stores Inc. US7782961038 198,58 17:25 Uhr -0,10% -0,2000
SanDisk Corp. US80004C2008 1.310,00 17:25 Uhr -0,76% -10,00
Seagate Technolog.Holdings PLC IE00BKVD2N49 682,00 17:25 Uhr +0,29% +2,000
Shopify Inc. CA82509L1076 123,84 17:51 Uhr +2,72% +3,280
Space Exploration Techs. Corp. US84615Q1031 128,40 17:25 Uhr +6,19% +7,480
Starbucks Corp. US8552441094 91,17 17:25 Uhr -1,92% -1,780
Synopsys Inc. US8716071076 359,00 17:25 Uhr +0,28% +1,0000
T-Mobile US Inc. US8725901040 161,62 17:25 Uhr -0,01% -0,0200
Tesla Inc. US88160R1014 326,90 17:25 Uhr +6,71% +20,55
Texas Instruments Inc. US8825081040 216,75 17:25 Uhr -1,81% -4,000
Thomson Reuters Corp. CA8849038812 94,75 17:25 Uhr +5,22% +4,700
Vertex Pharmaceuticals Inc. US92532F1003 479,40 17:25 Uhr +0,89% +4,250
Walmart Inc. US9311421039 93,61 17:25 Uhr +2,27% +2,080
WARNER BROS. DISCOVERY INC. US9344231041 24,37 17:25 Uhr -0,57% -0,1400
Western Digital Corp. US9581021055 378,85 17:25 Uhr -0,43% -1,650
Workday Inc. US98138H1014 177,02 17:25 Uhr +3,04% +5,220

Die Liste zeigt die im Index enthaltenen Werte, sofern diese an der Börse Hannover gehandelt werden. Alle Angaben ohne Gewähr.

Weitere Auslandsindizes

AEXNiederlande
ATXÖsterreich
BEL 20Belgien
CAC 40Frankreich
Dow JonesUSA
EuroStoxx 50Eurozone
FTSE 100Großbritannien
MIBItalien
IBEX 35Spanien
Stoxx Europe 50Europa